Time;durP1;ratioP1;P1;durP2;ratioP2;P2;SDS_P1;SDS_P2;PMS_P1;PMS_P2;Temp;Humidity;BMP_temperature;BMP_pressure;BME280_temperature;BME280_humidity;BME280_pressure;Samples;Min_cycle;Max_cycle;Signal;HPM_P1;HPM_P2
2022/12/08 00:01:33;;;;;;;5.57;4.27;;;2.20;99.90;;;;;;5070207;28;20584;-72
2022/12/08 00:04:01;;;;;;;7.40;4.27;;;2.20;99.90;;;;;;5068623;28;20210;-75
2022/12/08 00:09:24;;;;;;;7.17;4.10;;;2.20;99.90;;;;;;5070044;28;20216;-72
2022/12/08 00:11:57;;;;;;;7.77;3.70;;;2.20;99.90;;;;;;5068990;28;20200;-72
2022/12/08 00:14:27;;;;;;;6.40;4.07;;;2.20;99.90;;;;;;5059354;28;20236;-74
2022/12/08 00:16:54;;;;;;;7.53;4.00;;;2.20;99.90;;;;;;5067986;28;20276;-75
2022/12/08 00:19:22;;;;;;;5.87;3.57;;;2.10;99.90;;;;;;5068189;28;20193;-73
2022/12/08 00:21:49;;;;;;;8.47;3.83;;;2.10;99.90;;;;;;5070999;28;20259;-74
2022/12/08 00:24:18;;;;;;;5.37;3.40;;;2.10;99.90;;;;;;5069991;28;20640;-74
2022/12/08 00:26:46;;;;;;;6.33;3.40;;;2.10;99.90;;;;;;5068489;28;20199;-74
2022/12/08 00:29:13;;;;;;;8.47;3.20;;;2.10;99.90;;;;;;5070382;28;20279;-74
2022/12/08 00:31:40;;;;;;;4.13;2.83;;;2.10;99.90;;;;;;5068580;28;20201;-75
2022/12/08 00:34:07;;;;;;;7.00;3.67;;;2.10;99.90;;;;;;5068001;28;20567;-75
2022/12/08 00:36:35;;;;;;;4.20;3.23;;;2.10;99.90;;;;;;5070915;28;20455;-74
2022/12/08 00:39:02;;;;;;;4.00;2.43;;;2.10;99.90;;;;;;5070183;28;20233;-72
2022/12/08 00:44:20;;;;;;;3.87;2.73;;;2.10;99.90;;;;;;5052642;28;20209;-75
2022/12/08 00:46:48;;;;;;;3.63;2.40;;;2.00;99.90;;;;;;5070144;28;20784;-76
2022/12/08 00:49:15;;;;;;;3.47;2.43;;;2.00;99.90;;;;;;5068258;28;20573;-74
2022/12/08 00:51:42;;;;;;;4.47;1.93;;;2.00;99.90;;;;;;5069413;28;20250;-73
2022/12/08 00:54:10;;;;;;;3.17;2.20;;;2.00;99.90;;;;;;5068580;28;20587;-73
2022/12/08 00:56:39;;;;;;;4.43;2.47;;;2.00;99.90;;;;;;5070213;28;20237;-75
2022/12/08 00:59:06;;;;;;;6.60;2.30;;;2.00;99.90;;;;;;5070471;28;20201;-74
2022/12/08 01:01:34;;;;;;;10.33;2.47;;;2.00;99.90;;;;;;5070226;28;20225;-75
2022/12/08 01:04:03;;;;;;;4.27;2.27;;;1.90;99.90;;;;;;5068832;28;20217;-74
2022/12/08 01:06:31;;;;;;;3.43;2.43;;;2.00;99.90;;;;;;5069083;28;20254;-74
2022/12/08 01:08:57;;;;;;;4.33;2.37;;;1.90;99.90;;;;;;5069447;28;20346;-74
2022/12/08 01:11:24;;;;;;;4.60;2.07;;;1.90;99.90;;;;;;5070176;28;20641;-75
2022/12/08 01:13:54;;;;;;;2.30;1.90;;;1.90;99.90;;;;;;5068262;28;20240;-74
2022/12/08 01:16:23;;;;;;;4.67;2.13;;;1.90;99.90;;;;;;5069973;28;20209;-73
2022/12/08 01:18:50;;;;;;;4.50;2.10;;;1.90;99.90;;;;;;5067108;28;20726;-72
2022/12/08 01:21:18;;;;;;;4.13;1.80;;;1.80;99.90;;;;;;5067797;28;20228;-74
2022/12/08 01:23:45;;;;;;;5.67;2.40;;;1.80;99.90;;;;;;5067522;28;20197;-74
2022/12/08 01:26:15;;;;;;;3.70;1.90;;;1.80;99.90;;;;;;5069594;28;20331;-73
2022/12/08 01:28:43;;;;;;;2.80;1.70;;;1.80;99.90;;;;;;5071025;28;20221;-73
2022/12/08 01:31:13;;;;;;;3.43;1.90;;;1.80;99.90;;;;;;5073864;28;20720;-73
2022/12/08 01:33:41;;;;;;;3.90;1.80;;;1.80;99.90;;;;;;5073540;28;20223;-73
2022/12/08 01:36:09;;;;;;;5.70;1.87;;;1.80;99.90;;;;;;5073075;28;20216;-74
2022/12/08 01:38:36;;;;;;;5.27;2.30;;;1.80;99.90;;;;;;5071257;28;20740;-74
2022/12/08 01:41:03;;;;;;;5.53;2.23;;;1.70;99.90;;;;;;5072047;28;20304;-73
2022/12/08 01:43:56;;;;;;;2.43;1.70;;;1.70;99.90;;;;;;5072408;28;20223;-73
2022/12/08 01:46:26;;;;;;;4.10;2.00;;;1.70;99.90;;;;;;5069249;28;20649;-73
2022/12/08 01:48:59;;;;;;;4.03;1.90;;;1.70;99.90;;;;;;5071555;28;20680;-75
2022/12/08 01:51:27;;;;;;;4.47;2.13;;;1.70;99.90;;;;;;5073304;28;20278;-74
2022/12/08 01:53:54;;;;;;;3.93;1.50;;;1.70;99.90;;;;;;5072237;28;20208;-74
2022/12/08 01:56:27;;;;;;;3.57;1.57;;;1.70;99.90;;;;;;5071521;28;20296;-75
2022/12/08 01:58:55;;;;;;;2.80;1.83;;;1.70;99.90;;;;;;5074261;28;20220;-73
2022/12/08 02:01:23;;;;;;;4.43;1.97;;;1.70;99.90;;;;;;5074695;28;20240;-75
2022/12/08 02:03:56;;;;;;;3.17;1.60;;;1.70;99.90;;;;;;5067909;28;20656;-75
2022/12/08 02:06:24;;;;;;;3.87;1.90;;;1.70;99.90;;;;;;5067311;28;20350;-74
2022/12/08 02:08:53;;;;;;;3.60;1.70;;;1.60;99.90;;;;;;5076003;28;20331;-74
2022/12/08 02:11:24;;;;;;;2.70;2.00;;;1.70;99.90;;;;;;5076094;28;20239;-74
2022/12/08 02:13:53;;;;;;;5.20;2.10;;;1.70;99.90;;;;;;5074680;28;20261;-75
2022/12/08 02:16:35;;;;;;;2.80;2.00;;;1.60;99.90;;;;;;5072372;28;20754;-74
2022/12/08 02:19:35;;;;;;;2.90;2.20;;;1.60;99.90;;;;;;5072890;28;20241;-76
2022/12/08 02:22:11;;;;;;;3.03;2.00;;;1.70;99.90;;;;;;5071577;28;20300;-74
2022/12/08 02:24:41;;;;;;;3.77;1.87;;;1.60;99.90;;;;;;5074573;28;20635;-74
2022/12/08 02:27:24;;;;;;;4.10;2.33;;;1.60;99.90;;;;;;5075397;28;20209;-75
2022/12/08 02:30:18;;;;;;;4.17;2.03;;;1.60;99.90;;;;;;5074800;28;20279;-74
2022/12/08 02:33:25;;;;;;;6.07;2.33;;;1.60;99.90;;;;;;5073415;28;20201;-73
2022/12/08 02:35:59;;;;;;;4.03;2.27;;;1.60;99.90;;;;;;5072320;28;20668;-75
2022/12/08 02:38:36;;;;;;;4.17;1.90;;;1.50;99.90;;;;;;5073949;28;20252;-74
2022/12/08 02:41:15;;;;;;;3.83;2.27;;;1.50;99.90;;;;;;5073063;28;20201;-75
2022/12/08 02:43:44;;;;;;;3.37;2.30;;;1.50;99.90;;;;;;5073844;28;20650;-74
2022/12/08 02:46:14;;;;;;;3.63;2.20;;;1.50;99.90;;;;;;5072879;28;20232;-74
2022/12/08 02:48:42;;;;;;;4.73;2.23;;;1.50;99.90;;;;;;5071866;28;20316;-74
2022/12/08 02:51:11;;;;;;;3.07;2.10;;;1.50;99.90;;;;;;5072370;28;20213;-73
2022/12/08 02:53:38;;;;;;;6.07;2.10;;;1.50;99.90;;;;;;5062992;28;20209;-74
2022/12/08 02:56:18;;;;;;;3.60;2.37;;;1.50;99.90;;;;;;5074806;28;20224;-74
2022/12/08 02:59:13;;;;;;;2.43;2.03;;;1.50;99.90;;;;;;5068719;28;20197;-75
2022/12/08 03:01:56;;;;;;;7.57;2.47;;;1.60;99.90;;;;;;5070898;28;20296;-74
2022/12/08 03:04:29;;;;;;;8.67;2.50;;;1.50;99.90;;;;;;5069699;28;20307;-75
2022/12/08 03:07:04;;;;;;;4.23;2.50;;;1.50;99.90;;;;;;5073091;28;20294;-76
2022/12/08 03:09:39;;;;;;;5.13;2.40;;;1.50;99.90;;;;;;5069926;28;20220;-76
2022/12/08 03:12:15;;;;;;;4.40;2.50;;;1.50;99.90;;;;;;5073256;28;20201;-77
2022/12/08 03:14:53;;;;;;;4.30;2.20;;;1.50;99.90;;;;;;5072739;28;20213;-74
2022/12/08 03:17:23;;;;;;;2.77;1.87;;;1.40;99.90;;;;;;5072430;28;20207;-75
2022/12/08 03:19:50;;;;;;;4.40;2.17;;;1.40;99.90;;;;;;5071263;28;20197;-74
2022/12/08 03:22:23;;;;;;;3.77;2.70;;;1.40;99.90;;;;;;5074033;28;20328;-75
2022/12/08 03:24:51;;;;;;;2.77;2.27;;;1.40;99.90;;;;;;5072986;28;20641;-75
2022/12/08 03:27:20;;;;;;;3.50;2.60;;;1.40;99.90;;;;;;5073558;28;20289;-74
2022/12/08 03:29:49;;;;;;;5.50;2.43;;;1.40;99.90;;;;;;5073671;28;20223;-74
2022/12/08 03:32:23;;;;;;;2.73;2.07;;;1.30;99.90;;;;;;5073513;28;20205;-75
2022/12/08 03:34:53;;;;;;;2.63;2.40;;;1.30;99.90;;;;;;5071835;28;20265;-75
2022/12/08 03:37:21;;;;;;;3.67;2.47;;;1.30;99.90;;;;;;5074552;28;20305;-74
2022/12/08 03:39:48;;;;;;;2.83;2.33;;;1.30;99.90;;;;;;5073981;28;20193;-74
2022/12/08 03:42:15;;;;;;;5.23;2.87;;;1.30;99.90;;;;;;5076430;28;20306;-74
2022/12/08 03:44:42;;;;;;;4.47;2.90;;;1.30;99.90;;;;;;5074155;28;20288;-75
2022/12/08 03:47:09;;;;;;;6.33;3.47;;;1.30;99.90;;;;;;5075062;28;20642;-75
2022/12/08 03:49:37;;;;;;;5.10;3.00;;;1.20;99.90;;;;;;5073301;28;20311;-74
2022/12/08 03:52:04;;;;;;;3.13;2.80;;;1.20;99.90;;;;;;5071748;28;20214;-75
2022/12/08 03:54:32;;;;;;;5.90;3.03;;;1.20;99.90;;;;;;5072256;28;20693;-74
2022/12/08 03:56:59;;;;;;;5.00;3.00;;;1.20;99.90;;;;;;5070768;28;20263;-75
2022/12/08 03:59:26;;;;;;;8.00;2.83;;;1.10;99.90;;;;;;5073366;28;20249;-75
2022/12/08 04:01:53;;;;;;;4.20;3.37;;;1.10;99.90;;;;;;5072539;28;20543;-74
2022/12/08 04:04:20;;;;;;;6.83;3.37;;;1.10;99.90;;;;;;5070646;28;20292;-75
2022/12/08 04:06:47;;;;;;;5.60;3.27;;;1.10;99.90;;;;;;5071523;28;20282;-74
2022/12/08 04:09:14;;;;;;;5.30;3.30;;;1.10;99.90;;;;;;5071994;28;20225;-75
2022/12/08 04:11:42;;;;;;;4.43;3.27;;;1.10;99.90;;;;;;5072588;28;20205;-74
2022/12/08 04:14:09;;;;;;;4.57;3.30;;;1.10;99.90;;;;;;5068757;28;20218;-77
2022/12/08 04:16:38;;;;;;;5.87;3.77;;;1.10;99.90;;;;;;5071607;28;20273;-76
2022/12/08 04:19:05;;;;;;;3.80;3.17;;;1.10;99.90;;;;;;5071025;28;20341;-74
2022/12/08 04:21:32;;;;;;;5.70;3.33;;;1.20;99.90;;;;;;5071887;28;20209;-75
2022/12/08 04:23:59;;;;;;;4.33;3.43;;;1.20;99.90;;;;;;5071571;28;20271;-74
2022/12/08 04:26:26;;;;;;;10.67;4.20;;;1.20;99.90;;;;;;5073391;28;20209;-74
2022/12/08 04:28:54;;;;;;;12.40;4.27;;;1.20;99.90;;;;;;5073841;28;20201;-76
2022/12/08 04:31:21;;;;;;;6.17;4.10;;;1.20;99.90;;;;;;5071606;28;20209;-75
2022/12/08 04:33:48;;;;;;;5.67;4.10;;;1.30;99.90;;;;;;5069841;28;20338;-76
2022/12/08 04:36:15;;;;;;;6.67;4.50;;;1.30;99.90;;;;;;5070294;28;20776;-75
2022/12/08 04:38:42;;;;;;;6.73;4.30;;;1.30;99.90;;;;;;5074094;28;20242;-74
2022/12/08 04:41:09;;;;;;;4.80;3.93;;;1.40;99.90;;;;;;5071619;28;20232;-74
2022/12/08 04:43:36;;;;;;;7.90;4.30;;;1.30;99.90;;;;;;5071953;28;20236;-76
2022/12/08 04:46:08;;;;;;;7.17;4.03;;;1.30;99.90;;;;;;5072003;28;20670;-74
2022/12/08 04:48:36;;;;;;;5.73;4.17;;;1.30;99.90;;;;;;5072227;28;20215;-75
2022/12/08 04:51:03;;;;;;;8.67;4.07;;;1.30;99.90;;;;;;5070313;28;20293;-72
2022/12/08 04:53:30;;;;;;;6.77;4.00;;;1.30;99.90;;;;;;5071324;28;20255;-75
2022/12/08 04:55:57;;;;;;;7.33;4.70;;;1.30;99.90;;;;;;5072849;28;20289;-73
2022/12/08 04:58:24;;;;;;;6.40;4.03;;;1.30;99.90;;;;;;5072167;28;20205;-74
2022/12/08 05:00:51;;;;;;;9.47;4.80;;;1.30;99.90;;;;;;5071819;28;20336;-75
2022/12/08 05:03:19;;;;;;;7.77;4.70;;;1.30;99.90;;;;;;5071974;28;20251;-75
2022/12/08 05:05:46;;;;;;;7.80;5.13;;;1.30;99.90;;;;;;5073439;28;20208;-74
2022/12/08 05:08:13;;;;;;;6.40;4.50;;;1.30;99.90;;;;;;5076451;28;20521;-75
2022/12/08 05:10:40;;;;;;;6.87;3.97;;;1.20;99.90;;;;;;5076412;28;20681;-74
2022/12/08 05:13:07;;;;;;;6.70;4.37;;;1.20;99.90;;;;;;5074876;28;20217;-73
2022/12/08 05:15:34;;;;;;;5.17;4.33;;;1.20;99.90;;;;;;5075116;28;20681;-73
2022/12/08 05:18:01;;;;;;;6.20;4.53;;;1.10;99.90;;;;;;5080538;28;20730;-74
2022/12/08 05:20:29;;;;;;;7.07;4.63;;;1.10;99.90;;;;;;5075719;28;20205;-74
2022/12/08 05:22:56;;;;;;;5.23;4.00;;;1.10;99.90;;;;;;5073331;28;20213;-72
2022/12/08 05:25:24;;;;;;;6.60;4.97;;;1.10;99.90;;;;;;5075430;28;20674;-74
2022/12/08 05:27:51;;;;;;;8.50;4.83;;;1.00;99.90;;;;;;5074421;28;20201;-72
2022/12/08 05:30:18;;;;;;;7.67;4.53;;;1.00;99.90;;;;;;5079336;28;20217;-74
2022/12/08 05:32:45;;;;;;;5.80;4.33;;;0.90;99.90;;;;;;5075705;28;20269;-75
2022/12/08 05:35:12;;;;;;;7.60;4.83;;;0.90;99.90;;;;;;5071908;28;20300;-74
2022/12/08 05:37:40;;;;;;;6.27;4.23;;;0.90;99.90;;;;;;5072863;28;20235;-74
2022/12/08 05:40:08;;;;;;;7.90;4.60;;;0.90;99.90;;;;;;5069466;28;20201;-74
2022/12/08 05:42:35;;;;;;;7.90;4.90;;;0.90;99.90;;;;;;5074349;28;20202;-75
2022/12/08 05:45:03;;;;;;;8.43;4.77;;;0.90;99.90;;;;;;5074469;28;20296;-76
2022/12/08 05:47:30;;;;;;;9.50;4.60;;;0.80;99.90;;;;;;5066770;28;20235;-74
2022/12/08 05:49:56;;;;;;;6.97;4.27;;;0.90;99.90;;;;;;5070742;28;20719;-76
2022/12/08 05:52:23;;;;;;;8.35;6.45;;;0.90;99.90;;;;;;5068396;28;20468;-71
2022/12/08 05:54:52;;;;;;;9.32;6.88;;;0.90;99.90;;;;;;5068830;28;20549;-71
2022/12/08 05:57:19;;;;;;;9.37;5.27;;;0.80;99.90;;;;;;5071886;28;20548;-69
2022/12/08 05:59:46;;;;;;;7.67;5.10;;;0.80;99.90;;;;;;5081804;28;20290;-73
2022/12/08 06:02:13;;;;;;;8.80;6.38;;;0.90;99.90;;;;;;5088381;28;20513;-69
2022/12/08 06:04:40;;;;;;;9.70;6.40;;;0.90;99.90;;;;;;5070398;28;20457;-71
2022/12/08 06:07:09;;;;;;;9.83;6.17;;;0.90;99.90;;;;;;5079115;28;20475;-71
2022/12/08 06:09:36;;;;;;;9.07;5.77;;;1.00;99.90;;;;;;5070624;28;20248;-68
2022/12/08 06:12:04;;;;;;;8.47;5.50;;;1.00;99.90;;;;;;5071835;28;20236;-69
2022/12/08 06:14:31;;;;;;;8.40;4.90;;;1.10;99.90;;;;;;5068543;28;20327;-71
2022/12/08 06:16:58;;;;;;;7.70;4.67;;;1.10;99.90;;;;;;5069419;28;20661;-71
2022/12/08 06:19:25;;;;;;;7.30;5.23;;;1.10;99.90;;;;;;5072814;28;20629;-71
2022/12/08 06:21:52;;;;;;;10.37;5.37;;;1.20;99.90;;;;;;5070903;28;20229;-71
2022/12/08 06:24:19;;;;;;;11.27;4.90;;;1.20;99.90;;;;;;5068997;28;20213;-68
2022/12/08 06:26:46;;;;;;;9.70;5.47;;;1.30;99.90;;;;;;5067230;28;20212;-69
2022/12/08 06:29:15;;;;;;;8.47;4.97;;;1.30;99.90;;;;;;5071239;28;20305;-70
2022/12/08 06:31:41;;;;;;;11.57;4.47;;;1.30;99.90;;;;;;5068193;28;20357;-72
2022/12/08 06:34:08;;;;;;;10.43;5.67;;;1.40;99.90;;;;;;5069548;28;20205;-70
2022/12/08 06:36:35;;;;;;;8.97;5.30;;;1.40;99.90;;;;;;5080200;28;20281;-71
2022/12/08 06:39:03;;;;;;;9.63;5.53;;;1.40;99.90;;;;;;5069136;28;20279;-72
2022/12/08 06:41:29;;;;;;;10.23;5.77;;;1.40;99.90;;;;;;5074529;28;20284;-68
2022/12/08 06:43:57;;;;;;;6.93;5.13;;;1.40;99.90;;;;;;5072360;28;20215;-72
2022/12/08 06:46:25;;;;;;;8.40;5.37;;;1.40;99.90;;;;;;5072036;28;20213;-70
2022/12/08 06:48:52;;;;;;;6.73;5.03;;;1.40;99.90;;;;;;5072319;28;20232;-69
2022/12/08 06:51:21;;;;;;;8.47;5.40;;;1.40;99.90;;;;;;5073610;28;20300;-68
2022/12/08 06:53:48;;;;;;;8.50;5.03;;;1.40;99.90;;;;;;5069234;28;20567;-68
2022/12/08 06:56:18;;;;;;;8.77;5.30;;;1.50;99.90;;;;;;5073190;28;20295;-71
2022/12/08 06:58:46;;;;;;;9.27;5.07;;;1.50;99.90;;;;;;5070945;28;20284;-73
2022/12/08 07:01:13;;;;;;;7.30;4.70;;;1.50;99.90;;;;;;5069766;28;20232;-72
2022/12/08 07:03:42;;;;;;;7.67;5.00;;;1.50;99.90;;;;;;5071012;28;20207;-71
2022/12/08 07:06:15;;;;;;;7.93;5.03;;;1.50;99.90;;;;;;5072486;28;20205;-72
2022/12/08 07:08:43;;;;;;;7.83;5.13;;;1.50;99.90;;;;;;5055602;28;20622;-73
2022/12/08 07:11:12;;;;;;;9.17;5.60;;;1.60;99.90;;;;;;5071378;28;20534;-70
2022/12/08 07:13:39;;;;;;;7.73;5.13;;;1.60;99.90;;;;;;5071814;28;20209;-71
2022/12/08 07:16:07;;;;;;;11.20;5.17;;;1.60;99.90;;;;;;5053901;28;20723;-70
2022/12/08 07:18:34;;;;;;;9.30;5.50;;;1.60;99.90;;;;;;5069721;28;20248;-72
2022/12/08 07:21:05;;;;;;;11.33;5.50;;;1.60;99.90;;;;;;5076517;28;20524;-71
2022/12/08 07:23:32;;;;;;;6.43;4.60;;;1.70;99.90;;;;;;5080112;28;20209;-70
2022/12/08 07:26:02;;;;;;;7.93;5.07;;;1.70;99.90;;;;;;5076253;28;20205;-71
2022/12/08 07:28:31;;;;;;;11.50;4.90;;;1.70;99.90;;;;;;5078305;28;20211;-72
2022/12/08 07:30:58;;;;;;;6.17;4.40;;;1.80;99.90;;;;;;5077473;28;20582;-70
2022/12/08 07:33:26;;;;;;;12.33;5.60;;;1.80;99.90;;;;;;5081767;28;20324;-74
2022/12/08 07:35:56;;;;;;;11.73;5.97;;;1.90;99.90;;;;;;5084732;28;20216;-72
2022/12/08 07:38:25;;;;;;;9.07;5.47;;;2.10;99.90;;;;;;5078957;28;20229;-71
2022/12/08 07:40:52;;;;;;;11.10;5.77;;;2.20;99.90;;;;;;5082657;28;20225;-68
2022/12/08 07:43:20;;;;;;;8.13;5.07;;;2.40;99.90;;;;;;5080992;28;20353;-69
2022/12/08 07:45:47;;;;;;;9.17;6.23;;;2.50;99.90;;;;;;5079953;28;20288;-68
2022/12/08 07:48:14;;;;;;;12.73;5.47;;;2.70;99.90;;;;;;5082861;28;20658;-66
2022/12/08 07:50:41;;;;;;;8.27;5.10;;;2.80;99.90;;;;;;5078795;28;20225;-67
2022/12/08 07:53:09;;;;;;;7.53;4.97;;;3.00;99.90;;;;;;5071931;28;20272;-72
2022/12/08 07:55:40;;;;;;;10.23;5.53;;;3.00;99.90;;;;;;5070598;28;20287;-71
2022/12/08 07:58:07;;;;;;;7.77;5.00;;;3.10;99.90;;;;;;5069074;28;20300;-73
2022/12/08 08:00:36;;;;;;;9.13;5.40;;;3.10;99.90;;;;;;5057241;28;20697;-72
2022/12/08 08:03:03;;;;;;;5.67;4.60;;;3.10;99.90;;;;;;5066714;28;22215;-70
2022/12/08 08:05:30;;;;;;;8.93;5.80;;;3.10;99.90;;;;;;5070437;28;20651;-67
2022/12/08 08:07:58;;;;;;;11.30;4.80;;;3.20;99.90;;;;;;5071222;28;20209;-69
2022/12/08 08:10:26;;;;;;;10.10;5.67;;;3.30;99.90;;;;;;5071551;28;20232;-69
2022/12/08 08:12:54;;;;;;;8.37;4.83;;;3.40;99.90;;;;;;5071510;28;20288;-68
2022/12/08 08:15:21;;;;;;;8.10;5.17;;;3.50;99.90;;;;;;5070112;28;20218;-69
2022/12/08 08:17:51;;;;;;;7.47;4.90;;;3.60;99.90;;;;;;5069444;28;20650;-70
2022/12/08 08:20:18;;;;;;;10.23;4.87;;;3.80;99.90;;;;;;5067647;28;20314;-69
2022/12/08 08:22:46;;;;;;;8.90;4.50;;;4.00;99.90;;;;;;5068122;28;20276;-69
2022/12/08 08:25:13;;;;;;;9.50;4.40;;;4.20;99.90;;;;;;5068027;28;20248;-70
2022/12/08 08:27:41;;;;;;;8.87;4.80;;;4.30;99.90;;;;;;5070227;28;20515;-72
2022/12/08 08:30:11;;;;;;;8.67;4.53;;;4.60;99.90;;;;;;5069310;28;20235;-73
2022/12/08 08:32:40;;;;;;;10.87;5.20;;;4.80;99.90;;;;;;5071214;28;20197;-73
2022/12/08 08:35:08;;;;;;;6.80;4.60;;;5.10;99.90;;;;;;5076635;28;20237;-70
2022/12/08 08:37:35;;;;;;;9.70;5.23;;;5.40;99.90;;;;;;5072989;28;20237;-68
2022/12/08 08:40:02;;;;;;;10.83;5.43;;;5.60;99.90;;;;;;5070702;28;20201;-66
2022/12/08 08:42:29;;;;;;;9.67;5.50;;;5.70;99.90;;;;;;5072704;28;20292;-67
2022/12/08 08:44:56;;;;;;;12.27;6.30;;;5.90;99.90;;;;;;5066792;28;20201;-67
2022/12/08 08:47:24;;;;;;;9.17;5.53;;;6.60;99.90;;;;;;5068589;28;20224;-66
2022/12/08 08:49:51;;;;;;;10.77;5.53;;;8.30;99.90;;;;;;5065274;28;20205;-67
2022/12/08 08:52:18;;;;;;;8.57;4.93;;;9.90;99.90;;;;;;5067574;28;20233;-68
2022/12/08 08:54:45;;;;;;;9.57;6.50;;;10.80;99.90;;;;;;5069540;28;20248;-68
2022/12/08 08:57:12;;;;;;;6.73;4.43;;;11.40;99.70;;;;;;5072553;28;20292;-67
2022/12/08 08:59:39;;;;;;;9.67;5.20;;;12.00;97.70;;;;;;5068775;28;20229;-66
2022/12/08 09:02:06;;;;;;;6.93;4.77;;;12.40;93.60;;;;;;5067749;28;20296;-66
2022/12/08 09:04:35;;;;;;;10.07;4.93;;;12.50;91.00;;;;;;5068084;28;20201;-64
2022/12/08 09:07:01;;;;;;;9.43;5.63;;;12.80;91.70;;;;;;5073065;28;20215;-68
2022/12/08 09:09:29;;;;;;;6.73;4.77;;;14.10;91.10;;;;;;5069981;28;20654;-68
2022/12/08 09:11:57;;;;;;;9.57;5.17;;;15.60;81.80;;;;;;5071337;28;20224;-68
2022/12/08 09:14:24;;;;;;;8.20;5.07;;;16.50;76.90;;;;;;5073987;28;20296;-68
2022/12/08 09:16:51;;;;;;;10.33;5.60;;;17.60;69.60;;;;;;5075872;28;20292;-67
2022/12/08 09:19:18;;;;;;;7.67;5.13;;;18.30;62.40;;;;;;5074528;28;20216;-70
2022/12/08 09:21:46;;;;;;;8.93;5.33;;;18.20;59.00;;;;;;5069851;28;20197;-68
2022/12/08 09:24:15;;;;;;;9.10;5.77;;;18.00;59.00;;;;;;5067450;28;20296;-70
2022/12/08 09:26:42;;;;;;;8.10;5.40;;;18.00;56.90;;;;;;5063472;28;20649;-68
2022/12/08 09:29:10;;;;;;;9.20;5.33;;;18.20;56.70;;;;;;5065631;28;20325;-67
2022/12/08 09:31:37;;;;;;;9.50;5.73;;;18.40;56.60;;;;;;5070110;28;20221;-68
2022/12/08 09:34:05;;;;;;;7.53;5.38;;;18.20;55.00;;;;;;5063116;28;20299;-69
2022/12/08 09:36:32;;;;;;;7.35;5.40;;;17.90;55.30;;;;;;5067612;28;20212;-68
2022/12/08 09:39:00;;;;;;;8.63;5.73;;;17.50;54.20;;;;;;5065889;28;20240;-67
2022/12/08 09:41:32;;;;;;;9.13;6.00;;;17.00;55.50;;;;;;5069595;28;20205;-66
2022/12/08 09:44:07;;;;;;;8.70;5.63;;;16.70;55.50;;;;;;5073516;28;20235;-67
2022/12/08 09:46:35;;;;;;;9.03;6.00;;;16.40;56.10;;;;;;5072175;28;20296;-69
2022/12/08 09:49:03;;;;;;;10.20;6.63;;;16.40;57.10;;;;;;5070341;28;20206;-67
2022/12/08 09:51:37;;;;;;;7.23;6.00;;;16.30;56.00;;;;;;5070475;28;20225;-68
2022/12/08 09:54:11;;;;;;;11.63;6.93;;;15.90;55.90;;;;;;5074535;28;20200;-67
2022/12/08 09:56:39;;;;;;;9.27;6.80;;;15.10;56.50;;;;;;5075921;28;20557;-67
2022/12/08 09:59:20;;;;;;;10.07;6.10;;;14.30;58.00;;;;;;5069969;28;20206;-67
2022/12/08 10:01:47;;;;;;;9.43;6.93;;;13.50;59.50;;;;;;5070509;28;20284;-68
2022/12/08 10:04:22;;;;;;;10.17;6.87;;;12.80;60.70;;;;;;5069422;28;20359;-70
2022/12/08 10:06:59;;;;;;;10.87;7.47;;;12.10;62.40;;;;;;5067826;28;20656;-71
2022/12/08 10:09:35;;;;;;;11.10;6.73;;;11.60;64.40;;;;;;5071944;28;20665;-68
2022/12/08 10:12:12;;;;;;;9.27;7.07;;;11.10;65.50;;;;;;5073000;28;20295;-66
2022/12/08 10:14:42;;;;;;;8.87;7.40;;;10.50;66.80;;;;;;5070810;28;20292;-68
2022/12/08 10:17:16;;;;;;;10.50;7.43;;;10.10;68.70;;;;;;5073022;28;20220;-66
2022/12/08 10:19:45;;;;;;;11.43;7.47;;;9.60;71.50;;;;;;5070301;28;20584;-66
2022/12/08 10:22:18;;;;;;;12.57;7.60;;;9.10;73.00;;;;;;5073991;28;20194;-67
2022/12/08 10:24:54;;;;;;;13.00;7.23;;;8.70;75.70;;;;;;5072797;28;20736;-67
2022/12/08 10:27:21;;;;;;;12.37;8.07;;;8.50;77.60;;;;;;5075606;28;20207;-68
2022/12/08 10:29:48;;;;;;;11.27;8.20;;;8.20;78.70;;;;;;5074001;28;20304;-66
2022/12/08 10:32:19;;;;;;;12.10;8.43;;;7.90;79.40;;;;;;5073118;28;20729;-65
2022/12/08 10:35:05;;;;;;;12.10;8.57;;;7.50;81.50;;;;;;5077898;28;20204;-66
2022/12/08 10:37:33;;;;;;;14.13;8.30;;;7.10;84.20;;;;;;5067301;28;20228;-65
2022/12/08 10:40:05;;;;;;;11.90;9.00;;;6.90;87.60;;;;;;5071763;28;20224;-65
2022/12/08 10:42:39;;;;;;;15.93;7.70;;;6.80;89.30;;;;;;5074861;28;20207;-68
2022/12/08 10:45:22;;;;;;;14.40;8.00;;;6.60;90.40;;;;;;5072579;28;20803;-66
2022/12/08 10:47:58;;;;;;;12.03;8.00;;;6.40;91.80;;;;;;5071678;28;20212;-64
2022/12/08 10:50:31;;;;;;;12.23;8.63;;;6.10;93.00;;;;;;5072514;28;20344;-67
2022/12/08 10:53:00;;;;;;;11.73;8.77;;;5.90;94.30;;;;;;5074112;28;20700;-68
2022/12/08 10:55:38;;;;;;;12.17;9.10;;;5.70;96.60;;;;;;5071475;28;20288;-66
2022/12/08 10:58:05;;;;;;;13.77;8.43;;;5.60;99.10;;;;;;5072103;28;20209;-65
2022/12/08 11:00:32;;;;;;;14.07;9.43;;;5.60;99.90;;;;;;5069982;28;20582;-67
2022/12/08 11:03:01;;;;;;;14.07;9.50;;;5.80;99.90;;;;;;5070431;28;20289;-68
2022/12/08 11:05:32;;;;;;;12.17;8.57;;;6.20;99.90;;;;;;5072040;28;20981;-69
2022/12/08 11:08:00;;;;;;;17.10;9.57;;;6.30;99.90;;;;;;5069996;28;20201;-67
2022/12/08 11:10:34;;;;;;;9.80;8.27;;;6.30;99.90;;;;;;5069526;28;20206;-68
2022/12/08 11:13:06;;;;;;;12.87;8.93;;;6.10;99.90;;;;;;5073617;28;20641;-66
2022/12/08 11:15:38;;;;;;;14.30;9.53;;;5.80;99.90;;;;;;5073934;28;20205;-69
2022/12/08 11:18:21;;;;;;;12.50;9.37;;;5.60;99.90;;;;;;5075560;28;20228;-66
2022/12/08 11:20:57;;;;;;;13.90;9.73;;;5.40;99.90;;;;;;5074114;28;20197;-68
2022/12/08 11:23:26;;;;;;;13.53;9.63;;;5.30;99.90;;;;;;5069264;28;20275;-67
2022/12/08 11:25:58;;;;;;;12.97;9.23;;;5.20;99.90;;;;;;5074451;28;20608;-68
2022/12/08 11:28:26;;;;;;;14.73;10.40;;;5.10;99.90;;;;;;5072537;28;20297;-69
2022/12/08 11:30:58;;;;;;;16.70;9.83;;;4.90;99.90;;;;;;5070990;28;20236;-71
2022/12/08 11:33:26;;;;;;;16.43;9.83;;;4.90;99.90;;;;;;5069588;28;20244;-69
2022/12/08 11:35:59;;;;;;;13.83;9.40;;;4.80;99.90;;;;;;5069948;28;20212;-70
2022/12/08 11:38:27;;;;;;;15.23;9.20;;;4.70;99.90;;;;;;5077396;28;20245;-72
2022/12/08 11:41:00;;;;;;;13.97;10.60;;;4.60;99.90;;;;;;5087663;28;20189;-71
2022/12/08 11:43:34;;;;;;;16.13;10.67;;;4.50;99.90;;;;;;5083871;28;20189;-66
2022/12/08 11:46:03;;;;;;;17.33;11.17;;;4.50;99.90;;;;;;5074204;28;20197;-66
2022/12/08 11:48:35;;;;;;;17.47;10.30;;;4.50;99.90;;;;;;5070724;28;20208;-67
2022/12/08 11:51:07;;;;;;;21.07;11.80;;;4.50;99.90;;;;;;5073179;28;20229;-69
2022/12/08 11:53:41;;;;;;;16.80;11.53;;;4.50;99.90;;;;;;5070792;28;20205;-70
2022/12/08 11:56:19;;;;;;;17.50;11.83;;;4.60;99.90;;;;;;5072885;28;20292;-69
2022/12/08 11:58:50;;;;;;;16.60;12.07;;;4.70;99.90;;;;;;5068714;28;20250;-72
2022/12/08 12:01:20;;;;;;;18.57;11.93;;;4.80;99.90;;;;;;5067371;28;20229;-67
2022/12/08 12:03:55;;;;;;;18.10;12.23;;;4.70;99.90;;;;;;5068432;28;20565;-65
2022/12/08 12:06:46;;;;;;;20.33;12.67;;;4.60;99.90;;;;;;5072860;28;20205;-71
2022/12/08 12:09:18;;;;;;;17.70;11.67;;;4.40;99.90;;;;;;5067581;28;20201;-69
2022/12/08 12:12:18;;;;;;;16.77;12.37;;;4.30;99.90;;;;;;5069826;28;20308;-68
2022/12/08 12:15:27;;;;;;;18.23;12.70;;;4.30;99.90;;;;;;5066677;28;20205;-65
2022/12/08 12:17:57;;;;;;;18.30;13.17;;;4.20;99.90;;;;;;5064930;28;20292;-67
2022/12/08 12:20:28;;;;;;;20.87;12.50;;;4.20;99.90;;;;;;5068410;28;20208;-67
2022/12/08 12:23:00;;;;;;;16.90;11.50;;;4.10;99.90;;;;;;5066030;28;20204;-66
2022/12/08 12:25:28;;;;;;;19.07;12.30;;;4.10;99.90;;;;;;5070436;28;20259;-66
2022/12/08 12:28:01;;;;;;;17.60;10.93;;;4.20;99.90;;;;;;5072247;28;20209;-68
2022/12/08 12:30:34;;;;;;;16.57;11.90;;;4.30;99.90;;;;;;5076011;28;20300;-68
2022/12/08 12:33:07;;;;;;;20.60;13.00;;;4.30;99.90;;;;;;5065969;28;20282;-68
2022/12/08 12:35:37;;;;;;;19.67;12.03;;;4.30;99.90;;;;;;5073601;28;20209;-69
2022/12/08 12:38:59;;;;;;;20.83;11.50;;;4.30;99.90;;;;;;5078879;28;20308;-69
2022/12/08 12:41:01;;;;;;;16.30;11.57;;;4.40;99.90;;;;;;5078951;28;20201;-69
2022/12/08 12:43:33;;;;;;;18.07;12.83;;;4.40;99.90;;;;;;5093934;28;20209;-69
2022/12/08 12:49:33;;;;;;;17.20;11.73;;;4.50;99.90;;;;;;5112801;28;20204;-68
2022/12/08 12:52:00;;;;;;;20.03;12.43;;;4.50;99.90;;;;;;5104098;27;20244;-66
2022/12/08 12:54:28;;;;;;;17.37;12.20;;;4.50;99.90;;;;;;5089621;28;20231;-65
2022/12/08 12:56:56;;;;;;;16.47;10.87;;;4.50;99.90;;;;;;5087770;28;20208;-66
2022/12/08 12:59:41;;;;;;;18.53;12.13;;;4.50;99.90;;;;;;5091258;28;20238;-67
2022/12/08 13:02:19;;;;;;;18.07;11.60;;;4.40;99.90;;;;;;5091300;28;20200;-68
2022/12/08 13:04:55;;;;;;;20.87;12.57;;;4.40;99.90;;;;;;5097801;28;20204;-65
2022/12/08 13:07:25;;;;;;;19.53;12.17;;;4.40;99.90;;;;;;5094925;28;20271;-68
2022/12/08 13:09:58;;;;;;;21.23;12.37;;;4.30;99.90;;;;;;5098630;28;20283;-68
2022/12/08 13:12:27;;;;;;;19.57;12.47;;;4.30;99.90;;;;;;5097947;28;20315;-69
2022/12/08 13:15:03;;;;;;;24.40;12.43;;;4.20;99.90;;;;;;5084474;28;20306;-68